Time;durP1;ratioP1;P1;durP2;ratioP2;P2;SDS_P1;SDS_P2;PMS_P1;PMS_P2;Temp;Humidity;BMP_temperature;BMP_pressure;BME280_temperature;BME280_humidity;BME280_pressure;Samples;Min_cycle;Max_cycle;Signal;HPM_P1;HPM_P2
2023/10/02 00:01:51;;;;;;;12.50;7.88;;;21.90;96.20;;;;;;4867449;29;20061;-63
2023/10/02 00:04:18;;;;;;;12.48;7.18;;;21.90;94.90;;;;;;4864224;29;20053;-63
2023/10/02 00:06:47;;;;;;;13.15;7.70;;;22.10;94.80;;;;;;4855663;29;20058;-63
2023/10/02 00:09:14;;;;;;;13.02;8.20;;;22.00;94.70;;;;;;4876131;29;20048;-63
2023/10/02 00:11:39;;;;;;;14.23;7.78;;;22.10;94.80;;;;;;4851262;29;20061;-63
2023/10/02 00:14:19;;;;;;;12.57;7.40;;;21.80;96.20;;;;;;4878198;29;20399;-63
2023/10/02 00:17:00;;;;;;;12.48;7.88;;;22.10;95.00;;;;;;4847508;29;20465;-63
2023/10/02 00:19:36;;;;;;;11.77;7.45;;;21.90;94.30;;;;;;4859240;29;20509;-63
2023/10/02 00:22:07;;;;;;;13.43;7.88;;;21.90;94.30;;;;;;4867033;29;20551;-63
2023/10/02 00:24:39;;;;;;;11.65;7.78;;;21.90;94.90;;;;;;4876513;29;20053;-63
2023/10/02 00:27:06;;;;;;;;;;;21.80;94.90;;;;;;4877266;29;20057;-63
2023/10/02 00:29:31;;;;;;;13.38;7.60;;;22.00;95.10;;;;;;4860274;29;19955;-62
2023/10/02 00:31:58;;;;;;;11.68;7.13;;;21.80;94.70;;;;;;4865909;29;20057;-63
2023/10/02 00:34:30;;;;;;;13.32;7.95;;;21.90;94.80;;;;;;4862916;29;20064;-63
2023/10/02 00:37:05;;;;;;;15.18;8.43;;;22.00;94.90;;;;;;4876714;29;20392;-63
2023/10/02 00:39:35;;;;;;;13.65;7.80;;;21.90;95.00;;;;;;4856319;29;20136;-63
2023/10/02 00:42:17;;;;;;;11.65;7.47;;;21.80;94.90;;;;;;4867528;29;20057;-63
2023/10/02 00:44:52;;;;;;;13.05;7.97;;;21.70;94.90;;;;;;4864499;29;20061;-62
2023/10/02 00:47:42;;;;;;;13.98;8.38;;;22.00;95.00;;;;;;4862893;29;20098;-63
2023/10/02 00:50:16;;;;;;;12.18;7.20;;;22.10;95.10;;;;;;4875973;29;20053;-63
2023/10/02 00:53:03;;;;;;;13.55;7.93;;;21.90;96.30;;;;;;4872785;29;20511;-63
2023/10/02 00:55:35;;;;;;;11.75;7.40;;;21.90;94.20;;;;;;4867553;29;20140;-63
2023/10/02 00:58:05;;;;;;;14.50;8.27;;;21.60;96.10;;;;;;4881438;29;20088;-63
2023/10/02 01:00:37;;;;;;;12.07;7.68;;;22.00;94.90;;;;;;4893585;29;20360;-63
2023/10/02 01:03:05;;;;;;;12.93;7.70;;;21.60;95.50;;;;;;4896134;29;20048;-63
2023/10/02 01:05:58;;;;;;;13.40;8.57;;;21.80;94.90;;;;;;4880300;29;20099;-63
2023/10/02 01:11:04;;;;;;;11.73;7.57;;;21.70;94.90;;;;;;4880441;29;20121;-63
2023/10/02 01:13:32;;;;;;;14.35;8.07;;;21.80;94.70;;;;;;4864670;29;20556;-63
2023/10/02 01:16:04;;;;;;;13.27;7.75;;;21.80;96.10;;;;;;4883302;29;20052;-63
2023/10/02 01:18:30;;;;;;;12.70;7.25;;;21.80;94.90;;;;;;4864808;29;20583;-63
2023/10/02 01:20:56;;;;;;;13.77;8.23;;;21.80;96.40;;;;;;4863904;29;20093;-63
2023/10/02 01:23:25;;;;;;;11.60;7.65;;;21.80;94.90;;;;;;4892536;29;20059;-63
2023/10/02 01:25:56;;;;;;;12.90;8.07;;;21.90;96.20;;;;;;4881875;29;20060;-63
2023/10/02 01:28:25;;;;;;;12.88;7.97;;;21.80;94.90;;;;;;4836376;29;20092;-63
2023/10/02 01:30:51;;;;;;;11.52;7.32;;;22.00;95.00;;;;;;4846344;29;20441;-63
2023/10/02 01:33:26;;;;;;;12.60;7.88;;;21.80;96.10;;;;;;4861060;29;20060;-63
2023/10/02 01:35:56;;;;;;;13.73;8.07;;;21.80;96.10;;;;;;4880379;29;20084;-63
2023/10/02 01:38:29;;;;;;;13.60;7.93;;;21.70;94.90;;;;;;4864001;29;20071;-63
2023/10/02 01:41:08;;;;;;;13.75;7.75;;;22.00;94.40;;;;;;4879184;29;20056;-63
2023/10/02 01:43:39;;;;;;;11.65;7.65;;;22.00;94.90;;;;;;4879946;29;20082;-63
2023/10/02 01:46:05;;;;;;;13.35;7.40;;;22.20;96.40;;;;;;4876199;29;20133;-63
2023/10/02 01:48:36;;;;;;;12.00;6.97;;;21.70;94.90;;;;;;4875087;29;20411;-63
2023/10/02 01:51:15;;;;;;;12.82;7.55;;;21.80;96.30;;;;;;4891460;29;20060;-63
2023/10/02 01:53:49;;;;;;;13.52;8.05;;;21.80;94.40;;;;;;4882068;29;20753;-62
2023/10/02 01:56:18;;;;;;;12.05;7.45;;;21.80;96.20;;;;;;4880378;29;20456;-64
2023/10/02 01:58:47;;;;;;;11.65;7.78;;;21.80;96.10;;;;;;4878892;29;20045;-63
2023/10/02 02:01:13;;;;;;;11.98;8.02;;;21.80;94.90;;;;;;4898984;29;20048;-65
2023/10/02 02:03:40;;;;;;;14.02;7.93;;;21.90;94.90;;;;;;4880612;29;20060;-64
2023/10/02 02:06:11;;;;;;;13.77;8.40;;;22.00;95.00;;;;;;4879687;29;20053;-66
2023/10/02 02:08:43;;;;;;;13.23;8.27;;;21.80;94.60;;;;;;4863760;29;20045;-65
2023/10/02 02:11:20;;;;;;;13.63;8.53;;;21.80;94.90;;;;;;4863538;29;20132;-66
2023/10/02 02:13:49;;;;;;;13.40;8.18;;;21.90;96.40;;;;;;4876474;29;20503;-65
2023/10/02 02:16:25;;;;;;;13.25;8.48;;;21.80;96.20;;;;;;4862379;29;20135;-65
2023/10/02 02:18:53;;;;;;;13.23;7.95;;;21.80;94.30;;;;;;4863234;29;20404;-65
2023/10/02 02:21:20;;;;;;;12.02;8.02;;;21.70;94.90;;;;;;4862984;29;20065;-66
2023/10/02 02:23:46;;;;;;;13.10;8.32;;;21.80;96.20;;;;;;4860833;29;20052;-64
2023/10/02 02:26:21;;;;;;;13.00;8.15;;;21.60;94.90;;;;;;4873488;29;20091;-64
2023/10/02 02:28:51;;;;;;;14.38;8.50;;;21.70;94.90;;;;;;4879569;29;20113;-65
2023/10/02 02:31:32;;;;;;;13.48;7.90;;;21.90;95.00;;;;;;4879404;29;20065;-65
2023/10/02 02:34:16;;;;;;;13.50;7.72;;;21.70;94.90;;;;;;4878523;29;20049;-65
2023/10/02 02:36:42;;;;;;;11.75;7.60;;;21.60;96.10;;;;;;4878005;29;20041;-64
2023/10/02 02:39:15;;;;;;;14.48;8.73;;;21.90;95.00;;;;;;4876913;29;20057;-65
2023/10/02 02:42:09;;;;;;;13.73;8.63;;;21.90;96.30;;;;;;4879568;29;20084;-65
2023/10/02 02:44:49;;;;;;;11.80;7.75;;;21.80;94.40;;;;;;4876569;29;20085;-65
2023/10/02 02:47:21;;;;;;;14.98;8.23;;;21.90;95.10;;;;;;4878736;29;20227;-65
2023/10/02 02:49:48;;;;;;;13.20;8.05;;;21.80;95.00;;;;;;4862480;29;20496;-64
2023/10/02 02:52:26;;;;;;;12.88;7.80;;;21.80;94.90;;;;;;4884313;29;20058;-66
2023/10/02 02:55:03;;;;;;;14.38;8.60;;;21.80;94.40;;;;;;4873411;29;20412;-66
2023/10/02 02:57:31;;;;;;;14.50;8.43;;;22.00;96.20;;;;;;4859203;29;20061;-64
2023/10/02 03:02:52;;;;;;;15.65;8.98;;;21.80;96.20;;;;;;4847754;29;20060;-64
2023/10/02 03:05:20;;;;;;;12.57;8.32;;;21.70;96.20;;;;;;4879114;29;20062;-65
2023/10/02 03:07:49;;;;;;;14.13;8.27;;;21.90;94.90;;;;;;4862347;29;20065;-66
2023/10/02 03:10:16;;;;;;;12.50;8.45;;;21.60;94.90;;;;;;4879173;29;20508;-65
2023/10/02 03:12:48;;;;;;;13.40;8.40;;;21.80;96.10;;;;;;4885605;29;20063;-65
2023/10/02 03:15:20;;;;;;;15.95;9.18;;;21.60;94.90;;;;;;4886676;29;20084;-65
2023/10/02 03:17:46;;;;;;;14.23;9.00;;;21.60;95.00;;;;;;4877279;29;20045;-63
2023/10/02 03:20:24;;;;;;;12.48;8.20;;;21.90;94.90;;;;;;4878156;29;20041;-64
2023/10/02 03:22:55;;;;;;;12.80;8.27;;;21.80;96.00;;;;;;4884337;29;20079;-65
2023/10/02 03:25:45;;;;;;;14.13;8.65;;;21.80;95.00;;;;;;4878660;29;20056;-66
2023/10/02 03:28:44;;;;;;;15.15;9.15;;;21.60;94.90;;;;;;4873711;29;20502;-64
2023/10/02 03:31:03;;;;;;;14.70;9.25;;;21.70;96.10;;;;;;4860966;29;20056;-64
2023/10/02 03:33:32;;;;;;;13.23;8.88;;;21.70;94.80;;;;;;4892197;29;20056;-65
2023/10/02 03:36:09;;;;;;;13.55;8.68;;;21.70;96.10;;;;;;4888715;29;20411;-65
2023/10/02 03:38:41;;;;;;;12.63;8.68;;;21.80;94.70;;;;;;4878544;29;20056;-65
2023/10/02 03:41:07;;;;;;;14.27;9.05;;;21.80;94.90;;;;;;4882727;29;20056;-66
2023/10/02 03:43:37;;;;;;;12.77;8.88;;;21.70;94.80;;;;;;4896743;29;20044;-64
2023/10/02 03:46:06;;;;;;;13.88;8.98;;;21.80;94.40;;;;;;4877299;29;20048;-66
2023/10/02 03:48:36;;;;;;;14.10;8.60;;;21.60;94.90;;;;;;4878603;29;20534;-66
2023/10/02 03:51:08;;;;;;;13.45;8.88;;;21.70;95.00;;;;;;4863855;29;20505;-66
2023/10/02 03:53:34;;;;;;;14.27;9.07;;;21.80;96.40;;;;;;4865428;29;20045;-65
2023/10/02 03:58:52;;;;;;;15.50;9.55;;;21.70;96.00;;;;;;4868167;29;20112;-67
2023/10/02 04:01:31;;;;;;;15.73;8.95;;;21.50;94.20;;;;;;4882339;29;20049;-67
2023/10/02 04:06:36;;;;;;;14.52;9.48;;;21.90;95.00;;;;;;4880051;29;20049;-65
2023/10/02 04:09:49;;;;;;;13.93;8.85;;;21.70;94.40;;;;;;4865276;29;20057;-66
2023/10/02 04:11:54;;;;;;;13.93;9.07;;;21.70;94.80;;;;;;4866029;29;20415;-67
2023/10/02 04:14:32;;;;;;;13.65;9.00;;;21.70;96.20;;;;;;4900587;29;20081;-66
2023/10/02 04:19:49;;;;;;;14.27;8.93;;;21.80;95.00;;;;;;4857584;29;20056;-64
2023/10/02 04:22:19;;;;;;;15.68;9.05;;;21.70;96.10;;;;;;4858122;29;20060;-63
2023/10/02 04:24:54;;;;;;;13.93;9.00;;;21.80;95.90;;;;;;4878979;29;20052;-64
2023/10/02 04:32:49;;;;;;;13.43;8.70;;;21.70;94.30;;;;;;4874583;29;20053;-63
2023/10/02 04:38:06;;;;;;;13.32;9.02;;;21.60;95.00;;;;;;4890017;29;19927;-64
2023/10/02 04:40:51;;;;;;;14.65;8.88;;;21.90;94.90;;;;;;4883251;29;20112;-64
2023/10/02 04:43:22;;;;;;;14.60;8.27;;;21.40;96.10;;;;;;4890142;29;20146;-63
2023/10/02 04:46:08;;;;;;;13.30;9.00;;;21.60;94.30;;;;;;4881317;29;20089;-65
2023/10/02 04:48:45;;;;;;;13.50;9.05;;;21.60;96.20;;;;;;4892683;29;20071;-65
2023/10/02 04:51:12;;;;;;;14.60;9.55;;;21.80;94.90;;;;;;4864252;29;20053;-65
2023/10/02 04:53:42;;;;;;;14.02;8.98;;;21.70;94.90;;;;;;4880417;29;20156;-66
2023/10/02 04:58:49;;;;;;;15.95;9.50;;;21.60;94.50;;;;;;4873428;29;20066;-64
2023/10/02 05:01:25;;;;;;;14.30;9.07;;;21.60;96.40;;;;;;4880530;29;20144;-67
2023/10/02 05:03:54;;;;;;;15.13;9.93;;;21.80;95.10;;;;;;4880746;29;20057;-66
2023/10/02 05:11:52;;;;;;;16.17;9.07;;;21.70;96.20;;;;;;4873836;29;20104;-64
2023/10/02 05:14:34;;;;;;;14.48;8.70;;;21.60;96.30;;;;;;4863722;29;20116;-64
2023/10/02 05:17:17;;;;;;;14.20;8.93;;;21.70;94.80;;;;;;4880768;29;20503;-64
2023/10/02 05:20:01;;;;;;;13.45;9.25;;;21.60;96.00;;;;;;4879517;29;20120;-65
2023/10/02 05:22:28;;;;;;;14.98;9.45;;;21.50;94.60;;;;;;4874245;29;20136;-67
2023/10/02 05:25:04;;;;;;;14.77;9.13;;;21.70;96.40;;;;;;4867384;29;20053;-66
2023/10/02 05:27:32;;;;;;;13.77;9.20;;;21.60;94.70;;;;;;4873200;29;20141;-66
2023/10/02 05:29:59;;;;;;;14.00;8.80;;;21.50;95.90;;;;;;4878357;29;20129;-65
2023/10/02 05:32:35;;;;;;;13.70;8.73;;;21.50;95.90;;;;;;4894740;29;20067;-65
2023/10/02 05:35:16;;;;;;;14.45;8.85;;;21.60;96.00;;;;;;4851936;29;20049;-65
2023/10/02 05:37:44;;;;;;;13.95;9.25;;;21.60;96.00;;;;;;4880611;29;20080;-65
2023/10/02 05:45:39;;;;;;;;;;;21.50;95.10;;;;;;4863761;29;20102;-65
2023/10/02 05:48:09;;;;;;;16.42;9.75;;;21.60;94.50;;;;;;4863829;29;19931;-65
2023/10/02 05:50:37;;;;;;;14.73;9.52;;;21.60;95.90;;;;;;4878060;29;20698;-65
2023/10/02 05:53:04;;;;;;;14.85;9.65;;;21.50;94.90;;;;;;4853299;29;20053;-65
2023/10/02 05:56:16;;;;;;;14.30;9.10;;;21.60;95.00;;;;;;4883599;29;20517;-65
2023/10/02 05:58:27;;;;;;;13.93;9.68;;;21.50;94.70;;;;;;4872177;29;20057;-65
2023/10/02 06:00:54;;;;;;;15.25;9.35;;;21.70;96.10;;;;;;4864286;29;20052;-64
2023/10/02 06:03:21;;;;;;;14.85;10.00;;;21.70;95.90;;;;;;4881574;29;20060;-65
2023/10/02 06:06:10;;;;;;;15.77;9.77;;;21.50;95.90;;;;;;4893282;29;20049;-64
2023/10/02 06:08:34;;;;;;;15.20;9.68;;;21.40;96.10;;;;;;4879660;29;20053;-65
2023/10/02 06:11:25;;;;;;;13.32;8.68;;;21.50;96.20;;;;;;4879352;29;20117;-64
2023/10/02 06:14:09;;;;;;;14.32;9.15;;;21.70;94.50;;;;;;4879858;29;20053;-65
2023/10/02 06:16:35;;;;;;;14.40;9.75;;;21.60;94.30;;;;;;4889734;29;20601;-65
2023/10/02 06:19:01;;;;;;;13.27;8.50;;;21.80;94.90;;;;;;4887720;29;20052;-64
2023/10/02 06:21:31;;;;;;;13.75;9.27;;;21.60;95.80;;;;;;4898242;29;20522;-65
2023/10/02 06:23:58;;;;;;;14.73;8.80;;;21.80;95.00;;;;;;4866087;29;20115;-65
2023/10/02 06:26:29;;;;;;;16.33;9.50;;;21.70;95.80;;;;;;4888714;29;20127;-65
2023/10/02 06:29:22;;;;;;;16.45;9.82;;;21.60;95.90;;;;;;4879005;29;20515;-64
2023/10/02 06:31:58;;;;;;;15.15;9.35;;;21.90;94.60;;;;;;4860811;29;20514;-65
2023/10/02 06:34:37;;;;;;;15.63;9.35;;;21.70;94.20;;;;;;4887146;29;20043;-64
2023/10/02 06:37:13;;;;;;;14.60;9.32;;;21.70;94.80;;;;;;4885841;29;20580;-64
2023/10/02 06:39:45;;;;;;;14.27;9.35;;;21.70;94.90;;;;;;4879322;29;20061;-65
2023/10/02 06:42:15;;;;;;;15.30;9.73;;;21.60;96.10;;;;;;4862577;29;20092;-64
2023/10/02 06:44:53;;;;;;;14.43;9.10;;;21.90;94.80;;;;;;4883618;29;20073;-64
2023/10/02 06:47:22;;;;;;;13.43;9.00;;;21.80;94.30;;;;;;4892304;29;20044;-66
2023/10/02 06:49:51;;;;;;;15.50;9.57;;;21.70;95.90;;;;;;4860579;29;20063;-65
2023/10/02 06:52:18;;;;;;;14.95;9.57;;;21.90;96.20;;;;;;4872944;29;20060;-63
2023/10/02 06:54:45;;;;;;;15.02;9.80;;;21.50;94.80;;;;;;4876862;29;20093;-64
2023/10/02 06:57:13;;;;;;;15.77;9.95;;;21.80;95.90;;;;;;4879471;29;20092;-64
2023/10/02 06:59:51;;;;;;;17.48;10.07;;;22.00;94.10;;;;;;4880338;29;20100;-65
2023/10/02 07:02:17;;;;;;;14.65;9.55;;;22.10;95.00;;;;;;4847680;29;20053;-66
2023/10/02 07:04:45;;;;;;;15.07;9.93;;;22.00;94.90;;;;;;4856475;29;20045;-65
2023/10/02 07:07:12;;;;;;;15.23;8.82;;;21.80;94.70;;;;;;4895419;29;20083;-66
2023/10/02 07:09:39;;;;;;;14.07;9.45;;;21.90;96.20;;;;;;4880378;29;20533;-66
2023/10/02 07:12:09;;;;;;;14.85;9.57;;;;;;;;;;4872337;29;20049;-64
2023/10/02 07:14:36;;;;;;;15.75;9.80;;;21.80;93.90;;;;;;4878691;29;20045;-65
2023/10/02 07:17:16;;;;;;;15.82;9.85;;;21.80;94.60;;;;;;4861645;29;20127;-63
2023/10/02 07:19:48;;;;;;;18.17;10.00;;;21.90;96.20;;;;;;4883639;29;20048;-66
2023/10/02 07:22:16;;;;;;;16.40;9.30;;;22.10;94.90;;;;;;4896733;29;20092;-67
2023/10/02 07:24:52;;;;;;;16.00;9.23;;;22.00;96.00;;;;;;4890178;29;20052;-66
2023/10/02 07:27:28;;;;;;;15.02;9.23;;;22.10;96.10;;;;;;4878323;29;20125;-67
2023/10/02 07:29:55;;;;;;;13.00;8.35;;;22.10;96.20;;;;;;4892322;29;20052;-67
2023/10/02 07:32:22;;;;;;;15.20;9.70;;;22.30;94.90;;;;;;4877108;29;20192;-67
2023/10/02 07:34:50;;;;;;;17.60;10.32;;;22.00;94.80;;;;;;4859324;29;20535;-66
2023/10/02 07:37:21;;;;;;;17.88;9.88;;;22.20;95.80;;;;;;4862053;29;20141;-66
2023/10/02 07:39:56;;;;;;;15.85;9.07;;;22.30;94.80;;;;;;4861864;29;20069;-67
2023/10/02 07:42:33;;;;;;;16.25;9.55;;;22.40;94.80;;;;;;4851477;29;20124;-67
2023/10/02 07:45:24;;;;;;;16.33;9.02;;;22.50;94.70;;;;;;4887077;29;20100;-67
2023/10/02 07:48:08;;;;;;;16.50;9.80;;;22.50;94.60;;;;;;4883252;29;20509;-68
2023/10/02 07:50:39;;;;;;;14.93;8.95;;;22.70;94.20;;;;;;4880467;29;20403;-67
2023/10/02 07:53:05;;;;;;;16.10;9.85;;;22.70;95.70;;;;;;4876922;29;20151;-67
2023/10/02 07:55:34;;;;;;;14.95;9.52;;;22.60;94.30;;;;;;4866315;29;20414;-67
2023/10/02 07:58:01;;;;;;;15.50;9.63;;;22.80;94.40;;;;;;4878317;29;20056;-67
2023/10/02 08:00:38;;;;;;;15.27;9.85;;;22.80;94.30;;;;;;4880714;29;20081;-66
2023/10/02 08:03:31;;;;;;;15.93;9.65;;;22.80;93.80;;;;;;4880142;29;20449;-67
2023/10/02 08:05:57;;;;;;;;;;;22.80;94.20;;;;;;4892680;29;20051;-67
2023/10/02 08:08:31;;;;;;;16.98;9.40;;;23.00;94.20;;;;;;4896940;29;19923;-68
2023/10/02 08:10:59;;;;;;;16.10;9.07;;;23.10;94.10;;;;;;4897252;29;20394;-69
2023/10/02 08:13:33;;;;;;;16.05;9.55;;;23.30;94.00;;;;;;4880033;29;20053;-67
2023/10/02 08:16:01;;;;;;;15.32;9.43;;;23.30;93.60;;;;;;4892048;29;20045;-67
2023/10/02 08:18:28;;;;;;;18.58;11.82;;;23.20;93.80;;;;;;4874041;29;20411;-67
2023/10/02 08:20:55;;;;;;;21.10;12.57;;;23.10;93.60;;;;;;4877825;29;20049;-70
2023/10/02 08:23:23;;;;;;;23.90;14.38;;;25.30;94.20;;;;;;4892268;29;20085;-68
2023/10/02 08:26:00;;;;;;;18.58;10.80;;;23.50;93.10;;;;;;4891523;29;21899;-68
2023/10/02 08:28:35;;;;;;;20.00;13.18;;;23.30;93.50;;;;;;4892098;29;20088;-69
2023/10/02 08:31:02;;;;;;;21.65;13.90;;;23.30;93.10;;;;;;4877997;29;20053;-68
2023/10/02 08:33:31;;;;;;;21.55;13.25;;;23.10;93.40;;;;;;4861546;29;20469;-67
2023/10/02 08:35:58;;;;;;;18.90;12.85;;;23.10;93.50;;;;;;4877714;29;20487;-69
2023/10/02 08:38:26;;;;;;;22.67;15.30;;;23.20;93.50;;;;;;4847160;29;20068;-69
2023/10/02 08:41:02;;;;;;;21.10;14.05;;;23.10;93.90;;;;;;4881248;29;20056;-68
2023/10/02 08:43:44;;;;;;;22.60;14.13;;;23.40;93.60;;;;;;4865536;29;20045;-70
2023/10/02 08:46:21;;;;;;;21.67;14.65;;;23.30;93.60;;;;;;4881553;29;20144;-67
2023/10/02 08:49:00;;;;;;;23.13;15.25;;;23.70;93.20;;;;;;4863528;29;20128;-68
2023/10/02 08:51:36;;;;;;;26.35;16.13;;;23.00;93.50;;;;;;4874357;29;20058;-69
2023/10/02 08:54:05;;;;;;;24.00;13.98;;;23.30;93.70;;;;;;4830563;29;20053;-67
2023/10/02 08:56:44;;;;;;;24.95;14.45;;;23.30;93.50;;;;;;4876206;29;20049;-68
2023/10/02 08:59:18;;;;;;;24.42;14.27;;;23.30;93.60;;;;;;4874271;29;20156;-70
2023/10/02 09:01:47;;;;;;;22.58;13.77;;;23.30;94.10;;;;;;4867694;29;20511;-70
2023/10/02 09:04:22;;;;;;;23.98;14.25;;;22.90;95.10;;;;;;4899662;29;20056;-68
2023/10/02 09:06:53;;;;;;;26.50;16.25;;;22.90;95.00;;;;;;4863587;29;20053;-68
2023/10/02 09:09:27;;;;;;;24.15;15.65;;;23.30;93.90;;;;;;4890647;29;20503;-69
2023/10/02 09:11:57;;;;;;;22.17;14.40;;;23.20;93.90;;;;;;4877726;29;20049;-69
2023/10/02 09:20:07;;;;;;;21.90;14.05;;;23.30;93.90;;;;;;4883967;29;20064;-68
2023/10/02 09:22:37;;;;;;;25.00;15.68;;;22.90;93.80;;;;;;4881658;29;20064;-69
2023/10/02 09:25:26;;;;;;;22.17;14.52;;;23.10;93.90;;;;;;4868087;29;20105;-68
2023/10/02 09:27:56;;;;;;;22.10;15.07;;;23.30;93.70;;;;;;4850474;29;20196;-69
2023/10/02 09:30:36;;;;;;;21.77;14.40;;;22.90;93.90;;;;;;4888709;29;20169;-69
2023/10/02 09:33:22;;;;;;;22.80;14.65;;;22.90;94.00;;;;;;4881619;29;20188;-69
2023/10/02 09:35:52;;;;;;;24.90;16.15;;;23.00;94.30;;;;;;4868141;29;20432;-69
2023/10/02 09:38:22;;;;;;;25.05;15.32;;;23.20;94.10;;;;;;4879632;29;20419;-69
2023/10/02 09:40:54;;;;;;;24.50;15.05;;;23.10;94.10;;;;;;4849037;29;20065;-69
2023/10/02 09:43:35;;;;;;;23.20;15.20;;;23.10;94.00;;;;;;4878657;29;20053;-69
2023/10/02 09:46:05;;;;;;;24.67;15.27;;;23.00;95.50;;;;;;4861968;29;20457;-69
2023/10/02 09:48:52;;;;;;;24.58;15.40;;;23.10;94.40;;;;;;4879378;29;20056;-69
2023/10/02 09:51:30;;;;;;;23.85;14.50;;;23.10;94.00;;;;;;4882156;29;20051;-67
2023/10/02 09:54:13;;;;;;;24.67;15.50;;;23.30;94.00;;;;;;4860753;29;20201;-68
2023/10/02 09:57:04;;;;;;;26.90;15.38;;;23.60;94.40;;;;;;4862558;29;20151;-68
2023/10/02 09:59:46;;;;;;;25.83;15.30;;;23.30;93.70;;;;;;4856239;29;20426;-68
2023/10/02 10:05:45;;;;;;;23.52;14.55;;;23.60;93.90;;;;;;4872933;29;20049;-69
2023/10/02 10:08:18;;;;;;;24.27;14.43;;;23.40;94.00;;;;;;4877393;29;20061;-69
2023/10/02 10:11:10;;;;;;;23.95;14.52;;;23.50;93.80;;;;;;4874801;29;20507;-68
2023/10/02 10:13:37;;;;;;;23.67;15.35;;;23.50;93.80;;;;;;4894295;29;20570;-69
2023/10/02 10:16:21;;;;;;;20.67;14.27;;;23.20;94.20;;;;;;4874770;29;20052;-69
2023/10/02 10:22:04;;;;;;;22.30;13.15;;;23.50;94.10;;;;;;4879904;29;20381;-69
2023/10/02 10:27:41;;;;;;;21.63;13.40;;;23.60;96.00;;;;;;4839097;29;20042;-70
2023/10/02 10:30:27;;;;;;;22.17;13.50;;;23.50;94.00;;;;;;4840010;29;20062;-70
2023/10/02 10:33:20;;;;;;;21.13;13.35;;;23.50;94.20;;;;;;4835940;29;20054;-70
2023/10/02 10:35:58;;;;;;;22.85;13.65;;;23.40;94.10;;;;;;4822199;29;20094;-69
2023/10/02 10:38:44;;;;;;;20.48;13.00;;;23.70;94.40;;;;;;4822121;29;20531;-69
2023/10/02 10:41:14;;;;;;;21.00;13.35;;;23.60;95.70;;;;;;4823256;29;20412;-67
2023/10/02 10:46:22;;;;;;;20.33;13.05;;;23.80;93.90;;;;;;4825196;29;20416;-67
2023/10/02 10:49:15;;;;;;;22.25;13.05;;;23.70;94.30;;;;;;4809940;29;20064;-67
2023/10/02 10:51:41;;;;;;;;;;;23.70;94.40;;;;;;4838336;29;20038;-68
2023/10/02 10:54:13;;;;;;;21.40;13.00;;;23.90;94.30;;;;;;4824579;29;20458;-68
2023/10/02 10:56:43;;;;;;;25.13;13.63;;;23.90;93.50;;;;;;4829242;29;20473;-69
2023/10/02 10:59:14;;;;;;;22.95;14.10;;;23.90;94.20;;;;;;4790018;29;20176;-69
2023/10/02 11:04:39;;;;;;;21.95;12.82;;;24.10;94.30;;;;;;4824229;29;20061;-69
2023/10/02 11:07:19;;;;;;;22.85;12.85;;;24.30;94.00;;;;;;4826948;29;20058;-69
2023/10/02 11:10:14;;;;;;;24.23;13.98;;;24.10;94.10;;;;;;4840807;29;20126;-70
2023/10/02 11:12:40;;;;;;;23.88;13.82;;;24.20;94.10;;;;;;4839994;29;20126;-70
2023/10/02 11:18:20;;;;;;;20.85;13.07;;;24.40;94.10;;;;;;4852519;29;20084;-69
2023/10/02 11:20:54;;;;;;;23.13;13.30;;;24.10;93.40;;;;;;4859255;29;20152;-70
2023/10/02 11:23:37;;;;;;;20.08;12.60;;;24.40;93.40;;;;;;4859259;29;20042;-69
2023/10/02 11:26:12;;;;;;;21.08;13.05;;;24.10;94.10;;;;;;4815537;29;20467;-69
2023/10/02 11:28:40;;;;;;;21.95;13.00;;;23.80;93.90;;;;;;4822397;29;20126;-69
2023/10/02 11:31:32;;;;;;;22.30;13.68;;;24.10;93.90;;;;;;4845105;29;20064;-70
2023/10/02 11:34:08;;;;;;;24.02;13.98;;;24.20;93.40;;;;;;4857205;29;20140;-69
2023/10/02 11:36:35;;;;;;;24.40;14.40;;;24.10;93.30;;;;;;4842206;29;20050;-69
2023/10/02 11:39:09;;;;;;;23.25;14.93;;;24.10;94.10;;;;;;4839005;29;20133;-69
2023/10/02 11:41:38;;;;;;;23.05;14.85;;;24.10;94.20;;;;;;4833558;29;20053;-70
2023/10/02 11:44:05;;;;;;;23.77;14.02;;;24.00;94.10;;;;;;4838498;29;20058;-70
2023/10/02 11:46:31;;;;;;;24.33;14.73;;;24.00;94.10;;;;;;4838611;29;20054;-68
2023/10/02 11:48:57;;;;;;;24.00;13.00;;;24.00;94.10;;;;;;4841590;29;20081;-68
2023/10/02 11:51:28;;;;;;;21.70;13.32;;;23.70;94.30;;;;;;4841420;29;20404;-70
2023/10/02 11:53:57;;;;;;;21.42;13.20;;;23.80;94.20;;;;;;4854235;29;20136;-69
2023/10/02 11:56:24;;;;;;;25.50;14.07;;;23.90;94.30;;;;;;4896175;29;20060;-67
2023/10/02 11:58:53;;;;;;;22.60;13.38;;;23.80;94.30;;;;;;4859582;29;20060;-68
2023/10/02 12:01:21;;;;;;;23.17;13.98;;;24.20;94.30;;;;;;4828830;29;20205;-69
2023/10/02 12:03:50;;;;;;;24.00;14.27;;;23.80;94.40;;;;;;4865268;29;20058;-69
2023/10/02 12:06:16;;;;;;;25.35;15.25;;;24.00;93.80;;;;;;4876059;29;20152;-69
2023/10/02 12:08:49;;;;;;;24.10;15.27;;;;;;;;;;4878665;29;20505;-70
2023/10/02 12:11:14;;;;;;;24.45;13.95;;;23.80;93.50;;;;;;4877988;29;20128;-69
2023/10/02 12:13:42;;;;;;;25.60;14.07;;;24.00;94.20;;;;;;4863528;29;20094;-70
2023/10/02 12:16:11;;;;;;;23.58;14.60;;;23.90;94.30;;;;;;4855010;29;20116;-69
2023/10/02 12:18:41;;;;;;;25.02;15.65;;;24.00;94.30;;;;;;4835194;29;20519;-70
2023/10/02 12:21:08;;;;;;;23.15;14.93;;;24.00;94.40;;;;;;4850229;29;20194;-70
2023/10/02 12:23:39;;;;;;;21.83;14.63;;;23.80;94.40;;;;;;4856393;29;20048;-69
2023/10/02 12:26:07;;;;;;;22.80;15.07;;;24.00;94.40;;;;;;4852239;29;20057;-70
2023/10/02 12:28:34;;;;;;;23.40;14.70;;;23.70;94.40;;;;;;4865300;29;20053;-70
2023/10/02 12:31:06;;;;;;;23.23;15.27;;;24.00;94.30;;;;;;4860251;29;20051;-70
2023/10/02 12:33:35;;;;;;;24.20;15.83;;;23.80;94.50;;;;;;4857913;29;20223;-69
2023/10/02 12:36:02;;;;;;;23.52;15.88;;;24.10;94.60;;;;;;4878320;29;20125;-68
2023/10/02 12:38:28;;;;;;;26.10;16.60;;;23.70;94.70;;;;;;4864617;29;20065;-68
2023/10/02 12:40:54;;;;;;;24.88;16.40;;;23.90;94.60;;;;;;4864863;29;20068;-71
2023/10/02 12:43:20;;;;;;;31.73;17.55;;;23.80;94.60;;;;;;4880317;29;20088;-70
2023/10/02 12:45:46;;;;;;;25.90;16.23;;;23.90;94.90;;;;;;4885893;29;20079;-68
2023/10/02 12:48:17;;;;;;;23.02;15.88;;;23.50;94.60;;;;;;4899068;29;20753;-68
2023/10/02 12:50:45;;;;;;;28.92;16.45;;;24.10;94.90;;;;;;4888861;29;20125;-68
2023/10/02 12:53:11;;;;;;;27.15;16.17;;;23.70;94.40;;;;;;4899942;29;20056;-68
2023/10/02 12:55:42;;;;;;;24.90;16.60;;;23.80;94.60;;;;;;4896831;29;20057;-68
2023/10/02 12:58:09;;;;;;;29.42;17.50;;;23.80;94.60;;;;;;4899933;29;20116;-68
2023/10/02 13:00:35;;;;;;;27.05;17.55;;;23.80;94.80;;;;;;4882757;29;20052;-68
2023/10/02 13:03:02;;;;;;;28.20;17.52;;;24.00;94.70;;;;;;4892301;29;20049;-68
2023/10/02 13:05:29;;;;;;;26.73;17.02;;;23.90;94.80;;;;;;4883571;29;20052;-68
2023/10/02 13:07:56;;;;;;;27.25;16.42;;;23.50;94.40;;;;;;4846596;29;20081;-68
2023/10/02 13:10:24;;;;;;;23.60;16.10;;;23.70;94.70;;;;;;4832718;29;20057;-68
2023/10/02 13:12:50;;;;;;;27.15;16.88;;;24.00;94.70;;;;;;4867249;29;20052;-68
2023/10/02 13:15:16;;;;;;;24.35;15.93;;;23.50;94.50;;;;;;4881289;29;20052;-68
2023/10/02 13:17:42;;;;;;;25.25;16.00;;;23.80;94.70;;;;;;4862383;29;20477;-68
2023/10/02 13:20:10;;;;;;;23.50;15.77;;;23.80;94.90;;;;;;4871882;29;20594;-68
2023/10/02 13:22:37;;;;;;;24.02;15.20;;;23.80;94.80;;;;;;4883188;29;20053;-67
2023/10/02 13:25:11;;;;;;;25.75;15.77;;;23.90;96.30;;;;;;4862229;29;20061;-66
2023/10/02 13:27:37;;;;;;;23.20;15.30;;;23.60;94.50;;;;;;4892171;29;20053;-68
2023/10/02 13:30:05;;;;;;;24.33;15.65;;;23.80;94.80;;;;;;4897920;29;20506;-68
2023/10/02 13:32:31;;;;;;;24.05;15.10;;;23.60;94.60;;;;;;4886874;29;20049;-68
2023/10/02 13:34:57;;;;;;;26.15;15.02;;;23.80;94.90;;;;;;4880850;29;20421;-69
2023/10/02 13:37:23;;;;;;;24.67;15.68;;;23.70;94.80;;;;;;4889847;29;20120;-68
2023/10/02 13:39:50;;;;;;;24.83;15.57;;;23.80;94.80;;;;;;4893844;29;20053;-69
2023/10/02 13:42:17;;;;;;;24.58;14.75;;;23.70;94.80;;;;;;4872620;29;20063;-67
2023/10/02 13:44:46;;;;;;;22.35;15.55;;;23.60;94.60;;;;;;4894341;29;20055;-68
2023/10/02 13:47:12;;;;;;;24.92;15.85;;;23.70;94.50;;;;;;4879995;29;20041;-68
2023/10/02 13:49:39;;;;;;;26.10;16.10;;;23.70;95.00;;;;;;4878913;29;20636;-68
2023/10/02 13:52:06;;;;;;;29.27;16.20;;;23.70;95.00;;;;;;4880235;29;20503;-68
2023/10/02 13:54:33;;;;;;;27.55;15.52;;;23.80;96.70;;;;;;4862316;29;20052;-67
2023/10/02 13:57:02;;;;;;;29.00;16.27;;;23.70;94.80;;;;;;4876728;29;20122;-68
2023/10/02 13:59:31;;;;;;;24.27;15.18;;;23.50;95.10;;;;;;4860607;29;20113;-69
2023/10/02 14:01:57;;;;;;;26.50;15.43;;;23.60;95.20;;;;;;4861478;29;20050;-67